createdAt,value
2022-11-06T00:02:47.528Z,9.23
2022-11-06T00:06:08.111Z,9.14
2022-11-06T00:09:12.375Z,9.13
2022-11-06T00:12:14.053Z,9.07
2022-11-06T00:15:16.311Z,9.16
2022-11-06T00:18:17.987Z,9.06
2022-11-06T00:21:24.542Z,9.16
2022-11-06T00:24:26.195Z,8.98
2022-11-06T00:27:28.241Z,9.10
2022-11-06T00:30:29.925Z,9.01
2022-11-06T00:33:31.680Z,8.94
2022-11-06T00:36:33.559Z,8.96
2022-11-06T00:39:35.208Z,8.96
2022-11-06T00:42:36.763Z,9.06
2022-11-06T00:45:38.325Z,8.96
2022-11-06T00:48:41.369Z,8.99
2022-11-06T00:51:43.139Z,9.09
2022-11-06T00:54:44.725Z,8.96
2022-11-06T00:57:46.297Z,8.98
2022-11-06T01:00:47.875Z,9.01
2022-11-06T01:03:56.384Z,9.08
2022-11-06T01:06:58.045Z,8.97
2022-11-06T01:09:59.629Z,8.89
2022-11-06T01:13:01.219Z,8.93
2022-11-06T01:16:06.193Z,9.06
2022-11-06T01:19:08.271Z,9.05
2022-11-06T01:22:09.939Z,8.92
2022-11-06T01:25:11.543Z,8.99
2022-11-06T01:28:13.330Z,8.92
2022-11-06T01:31:18.205Z,8.81
2022-11-06T01:34:19.855Z,8.81
2022-11-06T01:37:21.483Z,8.98
2022-11-06T01:40:23.146Z,8.92
2022-11-06T01:43:43.743Z,8.89
2022-11-06T01:46:45.366Z,8.91
2022-11-06T01:49:47.222Z,8.80
2022-11-06T01:52:51.032Z,8.96
2022-11-06T01:55:56.276Z,8.92
2022-11-06T01:58:57.997Z,8.85
2022-11-06T02:01:59.968Z,8.88
2022-11-06T02:05:01.723Z,8.95
2022-11-06T02:08:03.969Z,8.99
2022-11-06T02:11:05.602Z,8.86
2022-11-06T02:14:34.597Z,8.92
2022-11-06T02:17:39.316Z,8.93
2022-11-06T02:20:56.237Z,8.91
2022-11-06T02:24:36.150Z,8.82
2022-11-06T02:27:38.059Z,8.78
2022-11-06T02:30:45.863Z,8.83
2022-11-06T02:33:57.848Z,8.77
2022-11-06T02:37:04.706Z,8.78
2022-11-06T02:40:09.739Z,8.81
2022-11-06T02:43:14.480Z,8.77
2022-11-06T02:46:22.708Z,8.85
2022-11-06T02:49:40.229Z,8.83
2022-11-06T02:52:48.912Z,8.77
2022-11-06T02:55:53.735Z,8.77
2022-11-06T02:59:05.031Z,8.73
2022-11-06T03:02:11.892Z,8.75
2022-11-06T03:05:13.546Z,8.70
2022-11-06T03:08:25.769Z,8.72
2022-11-06T03:11:29.719Z,8.79
2022-11-06T03:14:54.573Z,8.77
2022-11-06T03:18:17.731Z,8.92
2022-11-06T03:21:27.035Z,8.81
2022-11-06T03:24:34.018Z,8.70
2022-11-06T03:27:40.648Z,8.80
2022-11-06T03:30:54.229Z,8.74
2022-11-06T03:34:01.701Z,8.76
2022-11-06T03:37:05.795Z,8.76
2022-11-06T03:40:12.095Z,8.75
2022-11-06T03:43:17.877Z,8.75
2022-11-06T03:46:25.130Z,8.82
2022-11-06T03:49:56.007Z,8.89
2022-11-06T03:53:12.292Z,8.82
2022-11-06T03:56:29.324Z,8.70
2022-11-06T03:59:38.115Z,8.73
2022-11-06T04:02:44.069Z,8.78
2022-11-06T04:05:55.774Z,8.71
2022-11-06T04:09:20.430Z,8.80
2022-11-06T04:12:44.623Z,8.80
2022-11-06T04:15:52.879Z,8.75
2022-11-06T04:18:54.451Z,8.75
2022-11-06T04:22:28.948Z,8.76
2022-11-06T04:26:13.675Z,8.70
2022-11-06T04:29:17.887Z,8.75
2022-11-06T04:32:40.661Z,8.73
2022-11-06T04:35:57.913Z,8.69
2022-11-06T04:39:37.350Z,8.75
2022-11-06T04:42:41.789Z,8.81
2022-11-06T04:45:48.131Z,8.65
2022-11-06T04:48:50.263Z,8.76
2022-11-06T04:51:52.941Z,8.78
2022-11-06T04:54:58.193Z,8.70
2022-11-06T04:57:59.764Z,8.76
2022-11-06T05:01:01.411Z,8.70
2022-11-06T05:04:03.176Z,8.81
2022-11-06T05:07:04.856Z,8.70
2022-11-06T05:10:06.825Z,8.69
2022-11-06T05:13:08.387Z,8.72
2022-11-06T05:16:10.022Z,8.63
2022-11-06T05:19:11.699Z,8.59
2022-11-06T05:22:32.021Z,8.62
2022-11-06T05:25:38.408Z,8.74
2022-11-06T05:28:40.051Z,8.65
2022-11-06T05:31:41.661Z,8.75
2022-11-06T05:34:43.287Z,8.74
2022-11-06T05:37:44.905Z,8.75
2022-11-06T05:40:46.728Z,8.68
2022-11-06T05:43:48.296Z,8.73
2022-11-06T05:46:50.344Z,8.66
2022-11-06T05:49:52.116Z,8.75
2022-11-06T05:52:53.715Z,8.67
2022-11-06T05:55:55.316Z,8.77
2022-11-06T05:58:56.919Z,8.80
2022-11-06T06:01:59.608Z,8.79
2022-11-06T06:05:01.295Z,8.82
2022-11-06T06:08:02.869Z,8.81
2022-11-06T06:11:08.274Z,8.83
2022-11-06T06:14:09.853Z,9.02
2022-11-06T06:17:11.575Z,8.96
2022-11-06T06:20:13.623Z,8.93
2022-11-06T06:23:15.207Z,9.06
2022-11-06T06:26:16.948Z,8.95
2022-11-06T06:29:18.814Z,9.21
2022-11-06T06:32:20.417Z,9.13
2022-11-06T06:35:21.980Z,9.07
2022-11-06T06:38:23.933Z,9.30
2022-11-06T06:41:25.529Z,9.28
2022-11-06T06:44:27.935Z,9.20
2022-11-06T06:47:29.494Z,9.30
2022-11-06T06:50:31.533Z,9.24
2022-11-06T06:53:33.313Z,9.31
2022-11-06T06:56:34.929Z,9.32
2022-11-06T06:59:36.593Z,9.26
2022-11-06T07:02:38.168Z,9.45
2022-11-06T07:05:40.108Z,9.37
2022-11-06T07:08:41.691Z,9.36
2022-11-06T07:11:43.277Z,9.38
2022-11-06T07:14:44.919Z,9.39
2022-11-06T07:17:46.680Z,9.47
2022-11-06T07:20:48.304Z,9.47
2022-11-06T07:23:50.675Z,9.57
2022-11-06T07:26:52.232Z,9.48
2022-11-06T07:29:53.833Z,9.53
2022-11-06T07:32:55.436Z,9.56
2022-11-06T07:36:02.583Z,9.60
2022-11-06T07:39:04.288Z,9.63
2022-11-06T07:42:05.953Z,9.62
2022-11-06T07:45:08.245Z,9.87
2022-11-06T07:48:09.826Z,9.94
2022-11-06T07:51:11.869Z,10.04
2022-11-06T07:54:13.555Z,10.30
2022-11-06T07:57:15.113Z,10.37
2022-11-06T08:00:17.022Z,10.53
2022-11-06T08:03:19.472Z,10.75
2022-11-06T08:06:21.045Z,10.48
2022-11-06T08:09:25.103Z,10.70
2022-11-06T08:12:26.714Z,10.64
2022-11-06T08:15:28.288Z,10.62
2022-11-06T08:18:29.831Z,10.48
2022-11-06T08:21:31.461Z,10.46
2022-11-06T08:24:33.022Z,10.75
2022-11-06T08:27:34.668Z,10.97
2022-11-06T08:30:36.267Z,10.95
2022-11-06T08:33:39.180Z,10.71
2022-11-06T08:36:49.241Z,10.92
2022-11-06T08:39:51.299Z,10.89
2022-11-06T08:42:52.886Z,10.95
2022-11-06T08:45:54.512Z,10.89
2022-11-06T08:48:56.079Z,10.76
2022-11-06T08:51:57.649Z,10.91
2022-11-06T08:54:59.198Z,11.05
2022-11-06T08:58:01.195Z,11.20
2022-11-06T09:01:02.831Z,11.17
2022-11-06T09:04:05.961Z,11.75
2022-11-06T09:07:08.274Z,12.31
2022-11-06T09:10:09.970Z,12.35
2022-11-06T09:13:12.365Z,12.53
2022-11-06T09:16:16.128Z,13.07
2022-11-06T09:19:17.906Z,12.58
2022-11-06T09:22:19.870Z,12.55
2022-11-06T09:25:22.001Z,12.66
2022-11-06T09:28:23.811Z,12.56
2022-11-06T09:31:25.585Z,12.64
2022-11-06T09:34:27.275Z,12.59
2022-11-06T09:37:28.851Z,12.67
2022-11-06T09:40:35.301Z,12.48
2022-11-06T09:44:14.273Z,12.62
2022-11-06T09:47:28.191Z,12.85
2022-11-06T09:50:35.247Z,13.35
2022-11-06T09:53:41.484Z,13.96
2022-11-06T09:56:46.182Z,14.43
2022-11-06T09:59:50.164Z,14.84
2022-11-06T10:02:55.893Z,15.13
2022-11-06T10:05:57.634Z,15.35
2022-11-06T10:09:06.038Z,16.03
2022-11-06T10:12:20.719Z,15.52
2022-11-06T10:15:38.972Z,15.29
2022-11-06T10:19:11.932Z,14.19
2022-11-06T10:22:20.945Z,13.90
2022-11-06T10:25:39.521Z,13.52
2022-11-06T10:29:05.542Z,13.51
2022-11-06T10:32:35.402Z,13.51
2022-11-06T10:35:45.258Z,13.74
2022-11-06T10:38:49.167Z,14.00
2022-11-06T10:41:57.097Z,14.19
2022-11-06T10:45:02.565Z,13.90
2022-11-06T10:48:31.730Z,13.83
2022-11-06T10:51:45.118Z,13.77
2022-11-06T10:54:58.919Z,14.19
2022-11-06T10:58:14.289Z,14.12
2022-11-06T11:01:16.241Z,13.96
2022-11-06T11:04:18.034Z,13.86
2022-11-06T11:07:21.797Z,13.80
2022-11-06T11:10:23.498Z,13.83
2022-11-06T11:13:25.053Z,14.48
2022-11-06T11:16:34.455Z,14.84
2022-11-06T11:19:41.937Z,15.13
2022-11-06T11:22:43.845Z,14.53
2022-11-06T11:25:51.309Z,14.70
2022-11-06T11:28:59.196Z,15.23
2022-11-06T11:32:07.122Z,15.40
2022-11-06T11:35:11.399Z,15.64
2022-11-06T11:38:19.253Z,15.80
2022-11-06T11:41:21.145Z,15.78
2022-11-06T11:44:23.885Z,15.62
2022-11-06T11:47:25.688Z,15.19
2022-11-06T11:50:32.006Z,15.63
2022-11-06T11:53:35.187Z,15.59
2022-11-06T11:57:03.418Z,15.72
2022-11-06T12:00:16.624Z,15.91
2022-11-06T12:03:21.747Z,16.27
2022-11-06T12:06:23.625Z,16.24
2022-11-06T12:09:26.742Z,16.25
2022-11-06T12:12:33.939Z,16.14
2022-11-06T12:15:50.155Z,16.22
2022-11-06T12:18:58.892Z,16.56
2022-11-06T12:22:06.792Z,16.53
2022-11-06T12:25:40.181Z,16.27
2022-11-06T12:28:44.144Z,16.53
2022-11-06T12:31:55.315Z,15.88
2022-11-06T12:35:01.429Z,15.67
2022-11-06T12:38:35.108Z,15.34
2022-11-06T12:41:41.838Z,15.45
2022-11-06T12:44:47.887Z,15.75
2022-11-06T12:47:59.288Z,15.64
2022-11-06T12:51:03.988Z,15.47
2022-11-06T12:54:32.104Z,15.66
2022-11-06T12:57:45.782Z,15.62
2022-11-06T13:00:58.683Z,15.39
2022-11-06T13:04:25.838Z,15.40
2022-11-06T13:07:36.946Z,15.11
2022-11-06T13:10:45.173Z,15.15
2022-11-06T13:14:22.485Z,14.52
2022-11-06T13:18:04.190Z,14.74
2022-11-06T13:21:30.315Z,14.65
2022-11-06T13:24:35.849Z,14.56
2022-11-06T13:27:45.094Z,14.63
2022-11-06T13:30:48.564Z,14.76
2022-11-06T13:33:59.897Z,14.27
2022-11-06T13:37:02.292Z,14.34
2022-11-06T13:40:33.374Z,14.31
2022-11-06T13:43:44.720Z,14.38
2022-11-06T13:46:50.822Z,14.65
2022-11-06T13:50:01.956Z,14.73
2022-11-06T13:53:31.313Z,15.07
2022-11-06T13:56:54.589Z,14.44
2022-11-06T14:00:15.037Z,14.48
2022-11-06T14:03:36.179Z,14.35
2022-11-06T14:06:40.160Z,14.18
2022-11-06T14:09:45.885Z,14.20
2022-11-06T14:12:50.147Z,14.16
2022-11-06T14:16:04.332Z,14.07
2022-11-06T14:19:21.031Z,13.95
2022-11-06T14:22:30.438Z,13.80
2022-11-06T14:25:40.026Z,13.87
2022-11-06T14:28:46.682Z,13.94
2022-11-06T14:32:04.249Z,14.01
2022-11-06T14:35:34.460Z,14.13
2022-11-06T14:38:37.342Z,13.97
2022-11-06T14:41:55.266Z,13.62
2022-11-06T14:45:00.596Z,13.56
2022-11-06T14:48:02.595Z,13.40
2022-11-06T14:51:08.070Z,13.32
2022-11-06T14:54:24.877Z,13.25
2022-11-06T14:57:35.815Z,13.14
2022-11-06T15:00:40.556Z,12.97
2022-11-06T15:03:55.337Z,12.91
2022-11-06T15:07:06.416Z,12.89
2022-11-06T15:10:41.567Z,12.83
2022-11-06T15:13:43.185Z,12.66
2022-11-06T15:16:54.552Z,12.63
2022-11-06T15:20:05.599Z,12.47
2022-11-06T15:23:14.004Z,12.52
2022-11-06T15:26:21.664Z,12.28
2022-11-06T15:29:26.257Z,12.14
2022-11-06T15:32:30.346Z,11.70
2022-11-06T15:35:35.268Z,11.72
2022-11-06T15:38:51.887Z,11.67
2022-11-06T15:41:53.631Z,11.76
2022-11-06T15:45:07.609Z,11.88
2022-11-06T15:48:23.016Z,11.91
2022-11-06T15:51:31.442Z,11.89
2022-11-06T15:54:38.008Z,11.88
2022-11-06T15:57:40.522Z,11.86
2022-11-06T16:00:43.083Z,11.75
2022-11-06T16:03:49.572Z,11.75
2022-11-06T16:06:53.159Z,11.63
2022-11-06T16:09:55.236Z,11.49
2022-11-06T16:13:00.358Z,11.48
2022-11-06T16:16:02.444Z,11.35
2022-11-06T16:19:24.893Z,11.31
2022-11-06T16:22:29.658Z,11.13
2022-11-06T16:25:31.590Z,11.11
2022-11-06T16:28:34.747Z,10.97
2022-11-06T16:31:40.155Z,10.81
2022-11-06T16:34:46.980Z,10.74
2022-11-06T16:37:48.763Z,10.68
2022-11-06T16:40:52.320Z,10.67
2022-11-06T16:44:12.981Z,10.70
2022-11-06T16:47:19.463Z,10.54
2022-11-06T16:50:40.312Z,10.69
2022-11-06T16:53:48.471Z,10.69
2022-11-06T16:56:52.481Z,10.51
2022-11-06T16:59:59.644Z,10.44
2022-11-06T17:03:03.943Z,10.40
2022-11-06T17:06:06.726Z,10.29
2022-11-06T17:09:23.985Z,10.24
2022-11-06T17:12:26.468Z,9.84
2022-11-06T17:15:29.696Z,9.93
2022-11-06T17:18:33.651Z,10.13
2022-11-06T17:21:36.139Z,10.12
2022-11-06T17:24:38.474Z,10.00
2022-11-06T17:27:41.780Z,9.73
2022-11-06T17:30:44.392Z,9.73
2022-11-06T17:33:47.254Z,9.80
2022-11-06T17:36:49.358Z,9.74
2022-11-06T17:39:51.489Z,9.54
2022-11-06T17:42:53.533Z,9.36
2022-11-06T17:45:56.071Z,9.26
2022-11-06T17:48:58.290Z,9.48
2022-11-06T17:52:01.638Z,9.43
2022-11-06T17:55:03.531Z,9.40
2022-11-06T17:58:05.815Z,9.36
2022-11-06T18:01:09.187Z,9.30
2022-11-06T18:04:11.800Z,9.45
2022-11-06T18:07:13.887Z,9.28
2022-11-06T18:10:16.041Z,9.34
2022-11-06T18:13:19.182Z,9.18
2022-11-06T18:16:22.831Z,9.03
2022-11-06T18:19:26.069Z,9.10
2022-11-06T18:22:27.887Z,8.96
2022-11-06T18:25:30.170Z,9.27
2022-11-06T18:28:32.658Z,9.06
2022-11-06T18:31:36.323Z,9.41
2022-11-06T18:34:38.797Z,9.35
2022-11-06T18:37:41.008Z,9.33
2022-11-06T18:40:48.920Z,9.28
2022-11-06T18:43:59.071Z,9.22
2022-11-06T18:47:01.326Z,9.18
2022-11-06T18:50:03.860Z,9.13
2022-11-06T18:53:06.317Z,9.18
2022-11-06T18:56:14.652Z,9.23
2022-11-06T18:59:19.500Z,9.19
2022-11-06T19:02:22.254Z,9.21
2022-11-06T19:05:24.669Z,9.24
2022-11-06T19:08:27.458Z,9.41
2022-11-06T19:11:29.869Z,9.35
2022-11-06T19:14:33.426Z,9.45
2022-11-06T19:17:36.033Z,9.61
2022-11-06T19:20:40.251Z,9.45
2022-11-06T19:23:43.952Z,9.29
2022-11-06T19:26:50.768Z,9.43
2022-11-06T19:29:52.730Z,9.35
2022-11-06T19:32:54.430Z,9.42
2022-11-06T19:35:59.433Z,9.32
2022-11-06T19:39:01.762Z,9.42
2022-11-06T19:42:07.006Z,9.46
2022-11-06T19:45:10.700Z,9.34
2022-11-06T19:48:14.163Z,9.41
2022-11-06T19:51:20.670Z,9.45
2022-11-06T19:54:22.866Z,9.60
2022-11-06T19:57:29.393Z,9.28
2022-11-06T20:00:32.409Z,9.47
2022-11-06T20:03:36.599Z,9.36
2022-11-06T20:06:39.874Z,9.57
2022-11-06T20:09:41.990Z,9.24
2022-11-06T20:12:47.904Z,9.41
2022-11-06T20:15:50.402Z,9.59
2022-11-06T20:18:53.394Z,9.37
2022-11-06T20:21:56.787Z,9.22
2022-11-06T20:24:59.584Z,9.15
2022-11-06T20:28:01.657Z,8.96
2022-11-06T20:31:10.902Z,8.90
2022-11-06T20:34:13.059Z,8.89
2022-11-06T20:37:15.214Z,9.08
2022-11-06T20:40:17.549Z,9.14
2022-11-06T20:43:19.246Z,9.23
2022-11-06T20:46:27.043Z,9.24
2022-11-06T20:49:29.698Z,9.26
2022-11-06T20:52:32.444Z,9.36
2022-11-06T20:55:35.062Z,9.34
2022-11-06T20:58:37.309Z,9.53
2022-11-06T21:01:40.168Z,9.53
2022-11-06T21:04:42.686Z,8.76
2022-11-06T21:07:45.210Z,9.15
2022-11-06T21:10:54.187Z,9.47
2022-11-06T21:13:56.217Z,9.62
2022-11-06T21:16:58.098Z,9.47
2022-11-06T21:20:00.203Z,9.50
2022-11-06T21:23:02.356Z,9.56
2022-11-06T21:26:24.314Z,9.48
2022-11-06T21:29:29.160Z,9.36
2022-11-06T21:32:30.894Z,9.22
2022-11-06T21:35:32.520Z,9.38
2022-11-06T21:38:34.388Z,8.92
2022-11-06T21:41:36.533Z,9.18
2022-11-06T21:44:38.803Z,9.30
2022-11-06T21:47:40.631Z,9.16
2022-11-06T21:50:42.171Z,9.03
2022-11-06T21:54:02.226Z,8.93
2022-11-06T21:57:04.265Z,8.94
2022-11-06T22:00:06.201Z,9.04
2022-11-06T22:03:07.698Z,8.95
2022-11-06T22:06:10.206Z,8.77
2022-11-06T22:09:12.319Z,8.89
2022-11-06T22:12:13.788Z,8.88
2022-11-06T22:15:15.430Z,8.56
2022-11-06T22:18:16.911Z,8.86
2022-11-06T22:21:19.828Z,8.84
2022-11-06T22:24:21.289Z,8.83
2022-11-06T22:27:22.754Z,8.89
2022-11-06T22:30:24.193Z,8.89
2022-11-06T22:33:25.843Z,8.85
2022-11-06T22:36:27.405Z,8.76
2022-11-06T22:39:28.910Z,8.84
2022-11-06T22:42:30.385Z,8.49
2022-11-06T22:45:32.122Z,8.59
2022-11-06T22:48:34.229Z,8.60
2022-11-06T22:51:35.860Z,8.32
2022-11-06T22:54:37.376Z,8.31
2022-11-06T22:57:38.829Z,8.27
2022-11-06T23:00:40.299Z,8.24
2022-11-06T23:03:41.767Z,8.14
2022-11-06T23:06:44.261Z,8.10
2022-11-06T23:09:45.785Z,8.01
2022-11-06T23:12:47.241Z,8.02
2022-11-06T23:15:49.084Z,7.86
2022-11-06T23:18:51.017Z,7.90
2022-11-06T23:22:12.581Z,7.97
2022-11-06T23:25:14.522Z,8.02
2022-11-06T23:28:16.015Z,7.95
2022-11-06T23:31:17.490Z,8.16
2022-11-06T23:34:18.962Z,8.01
2022-11-06T23:37:20.852Z,8.06
2022-11-06T23:40:22.321Z,7.95
2022-11-06T23:43:23.797Z,8.06
2022-11-06T23:46:26.647Z,8.08
2022-11-06T23:49:28.420Z,7.99
2022-11-06T23:52:29.921Z,7.67
2022-11-06T23:55:31.418Z,7.72
2022-11-06T23:58:32.845Z,7.80
